Time;durP1;ratioP1;P1;durP2;ratioP2;P2;SDS_P1;SDS_P2;PMS_P1;PMS_P2;Temp;Humidity;BMP_temperature;BMP_pressure;BME280_temperature;BME280_humidity;BME280_pressure;Samples;Min_cycle;Max_cycle;Signal;HPM_P1;HPM_P2
2022/05/18 00:01:59;;;;;;;3.85;2.63;;;;;;;;;;4965137;28;20026;-75
2022/05/18 00:04:25;;;;;;;5.32;2.67;;;;;;;;;;4965163;28;21388;-75
2022/05/18 00:06:50;;;;;;;4.38;2.60;;;;;;;;;;4967295;28;20050;-76
2022/05/18 00:09:16;;;;;;;3.40;2.50;;;;;;;;;;4966290;28;21986;-77
2022/05/18 00:11:41;;;;;;;3.45;2.55;;;;;;;;;;4969985;28;20140;-76
2022/05/18 00:14:07;;;;;;;6.93;2.53;;;;;;;;;;4964684;28;20033;-75
2022/05/18 00:16:33;;;;;;;4.90;2.72;;;;;;;;;;4965017;28;20042;-75
2022/05/18 00:18:58;;;;;;;6.55;2.88;;;;;;;;;;4964901;28;20047;-74
2022/05/18 00:21:25;;;;;;;4.97;2.70;;;;;;;;;;4964877;28;20034;-76
2022/05/18 00:23:51;;;;;;;5.32;2.90;;;;;;;;;;4964280;28;20057;-76
2022/05/18 00:26:17;;;;;;;3.38;2.30;;;;;;;;;;4963972;28;20030;-76
2022/05/18 00:28:43;;;;;;;3.08;2.40;;;;;;;;;;4963083;28;20041;-77
2022/05/18 00:31:11;;;;;;;4.03;2.80;;;;;;;;;;4962652;28;20078;-74
2022/05/18 00:33:36;;;;;;;5.82;2.58;;;;;;;;;;4965964;28;20362;-75
2022/05/18 00:36:01;;;;;;;6.13;2.67;;;;;;;;;;4962208;28;20045;-75
2022/05/18 00:38:27;;;;;;;4.93;2.63;;;;;;;;;;4966656;28;20038;-75
2022/05/18 00:40:53;;;;;;;6.15;2.75;;;;;;;;;;4961736;28;20144;-74
2022/05/18 00:43:28;;;;;;;4.18;2.75;;;;;;;;;;4963364;28;20414;-75
2022/05/18 00:45:54;;;;;;;7.45;2.40;;;;;;;;;;4961950;28;20758;-74
2022/05/18 00:48:19;;;;;;;4.45;2.20;;;;;;;;;;4961351;28;20078;-73
2022/05/18 00:50:46;;;;;;;5.95;3.15;;;;;;;;;;4960436;28;20051;-77
2022/05/18 00:53:19;;;;;;;5.35;2.80;;;;;;;;;;4965296;28;20038;-76
2022/05/18 00:55:49;;;;;;;4.68;2.60;;;;;;;;;;4960948;28;20035;-76
2022/05/18 00:58:22;;;;;;;6.25;2.70;;;;;;;;;;4962250;28;20085;-75
2022/05/18 01:00:50;;;;;;;5.88;2.92;;;;;;;;;;4960100;28;20040;-76
2022/05/18 01:03:26;;;;;;;5.70;2.50;;;;;;;;;;4963012;28;21141;-75
2022/05/18 01:06:02;;;;;;;5.63;2.42;;;;;;;;;;4962194;28;20121;-75
2022/05/18 01:08:39;;;;;;;4.25;2.53;;;;;;;;;;4962377;28;20046;-76
2022/05/18 01:11:05;;;;;;;4.75;2.47;;;;;;;;;;4963104;28;20430;-75
2022/05/18 01:13:31;;;;;;;6.18;2.80;;;;;;;;;;4962925;28;20132;-74
2022/05/18 01:15:56;;;;;;;7.10;3.05;;;;;;;;;;4962946;28;20108;-75
2022/05/18 01:18:22;;;;;;;6.53;2.70;;;;;;;;;;4963211;28;20152;-75
2022/05/18 01:20:48;;;;;;;4.82;2.70;;;;;;;;;;4963421;28;20536;-75
2022/05/18 01:23:38;;;;;;;6.95;2.80;;;;;;;;;;4964294;28;20031;-77
2022/05/18 01:26:18;;;;;;;4.07;2.65;;;;;;;;;;4964037;28;20479;-76
2022/05/18 01:28:52;;;;;;;5.05;2.70;;;;;;;;;;4964179;28;20034;-75
2022/05/18 01:31:17;;;;;;;3.42;2.38;;;;;;;;;;4962647;28;20049;-76
2022/05/18 01:33:43;;;;;;;6.68;2.58;;;;;;;;;;4964784;28;20046;-75
2022/05/18 01:36:08;;;;;;;4.80;2.70;;;;;;;;;;4964137;28;20042;-75
2022/05/18 01:38:34;;;;;;;5.18;2.78;;;;;;;;;;4963584;28;20038;-75
2022/05/18 01:41:16;;;;;;;4.80;2.67;;;;;;;;;;4964045;28;20411;-74
2022/05/18 01:43:48;;;;;;;7.03;2.67;;;;;;;;;;4965623;28;20491;-76
2022/05/18 01:46:16;;;;;;;6.00;2.83;;;;;;;;;;4962046;28;20438;-75
2022/05/18 01:48:45;;;;;;;5.72;2.70;;;;;;;;;;4962055;28;20383;-74
2022/05/18 01:51:14;;;;;;;4.43;2.58;;;;;;;;;;4962635;28;20421;-74
2022/05/18 01:53:40;;;;;;;5.55;2.72;;;;;;;;;;4963349;28;20037;-75
2022/05/18 01:56:08;;;;;;;6.68;2.97;;;;;;;;;;4961661;28;20034;-75
2022/05/18 01:58:33;;;;;;;6.82;3.00;;;;;;;;;;4963193;28;20589;-73
2022/05/18 02:01:01;;;;;;;5.93;2.92;;;;;;;;;;4960725;28;20044;-75
2022/05/18 02:03:27;;;;;;;4.68;3.15;;;;;;;;;;4960560;28;20042;-74
2022/05/18 02:05:53;;;;;;;4.20;2.85;;;;;;;;;;4961570;28;20042;-75
2022/05/18 02:08:19;;;;;;;5.55;3.05;;;;;;;;;;4962201;28;20057;-74
2022/05/18 02:10:44;;;;;;;4.65;3.13;;;;;;;;;;4960657;28;20414;-74
2022/05/18 02:13:10;;;;;;;5.00;2.80;;;;;;;;;;4964017;28;20038;-75
2022/05/18 02:15:36;;;;;;;7.55;3.08;;;;;;;;;;4962443;28;20677;-76
2022/05/18 02:18:02;;;;;;;5.05;3.03;;;;;;;;;;4962477;28;20144;-76
2022/05/18 02:20:27;;;;;;;4.45;3.22;;;;;;;;;;4961681;28;21446;-73
2022/05/18 02:22:53;;;;;;;6.38;3.20;;;;;;;;;;4962994;28;20030;-74
2022/05/18 02:25:21;;;;;;;6.40;3.03;;;;;;;;;;4962926;28;20073;-73
2022/05/18 02:27:47;;;;;;;4.35;3.15;;;;;;;;;;4963484;28;20050;-74
2022/05/18 02:30:14;;;;;;;4.53;3.25;;;;;;;;;;4960676;28;20047;-73
2022/05/18 02:32:39;;;;;;;5.35;3.30;;;;;;;;;;4958755;28;20041;-74
2022/05/18 02:35:05;;;;;;;5.35;3.58;;;;;;;;;;4962836;28;20491;-73
2022/05/18 02:37:32;;;;;;;6.25;3.60;;;;;;;;;;4966193;28;20121;-74
2022/05/18 02:39:58;;;;;;;7.70;4.55;;;;;;;;;;4965746;28;20105;-73
2022/05/18 02:42:23;;;;;;;8.80;4.20;;;;;;;;;;4964832;28;20042;-73
2022/05/18 02:44:49;;;;;;;6.68;4.00;;;;;;;;;;4965218;28;20042;-73
2022/05/18 02:47:15;;;;;;;7.85;4.40;;;;;;;;;;4959688;28;20069;-74
2022/05/18 02:49:40;;;;;;;5.80;4.25;;;;;;;;;;4962202;28;20121;-74
2022/05/18 02:52:06;;;;;;;6.90;4.18;;;;;;;;;;4962296;28;20034;-74
2022/05/18 02:57:19;;;;;;;9.18;4.68;;;;;;;;;;4964140;28;20054;-73
2022/05/18 02:59:45;;;;;;;7.28;4.80;;;;;;;;;;4960223;28;20047;-73
2022/05/18 03:02:11;;;;;;;7.47;4.80;;;;;;;;;;4961778;28;20356;-73
2022/05/18 03:04:36;;;;;;;8.20;4.80;;;;;;;;;;4963062;28;20134;-73
2022/05/18 03:07:02;;;;;;;6.90;4.88;;;;;;;;;;4960190;28;20130;-73
2022/05/18 03:09:27;;;;;;;6.50;4.78;;;;;;;;;;4960880;28;20720;-73
2022/05/18 03:11:53;;;;;;;9.20;4.82;;;;;;;;;;4959166;28;20073;-72
2022/05/18 03:14:19;;;;;;;11.68;5.45;;;;;;;;;;4962404;28;20058;-74
2022/05/18 03:16:44;;;;;;;9.00;5.57;;;;;;;;;;4964455;28;20086;-73
2022/05/18 03:19:13;;;;;;;9.70;5.30;;;;;;;;;;4961243;28;20046;-72
2022/05/18 03:24:23;;;;;;;8.98;5.40;;;;;;;;;;4962087;28;20057;-73
2022/05/18 03:26:48;;;;;;;7.40;5.00;;;;;;;;;;4960654;28;20042;-73
2022/05/18 03:29:14;;;;;;;10.52;5.45;;;;;;;;;;4960326;28;20042;-73
2022/05/18 03:31:40;;;;;;;9.27;5.25;;;;;;;;;;4959714;28;20117;-74
2022/05/18 03:34:08;;;;;;;8.38;4.93;;;;;;;;;;4959799;28;20426;-73
2022/05/18 03:36:34;;;;;;;8.40;4.85;;;;;;;;;;4963939;28;20375;-73
2022/05/18 03:39:01;;;;;;;9.70;5.38;;;;;;;;;;4965507;28;20483;-73
2022/05/18 03:41:27;;;;;;;9.15;5.43;;;;;;;;;;4963738;28;20528;-72
2022/05/18 03:43:52;;;;;;;8.93;5.32;;;;;;;;;;4968712;28;20112;-73
2022/05/18 03:46:18;;;;;;;7.43;4.80;;;;;;;;;;4977431;28;20498;-73
2022/05/18 03:48:44;;;;;;;9.00;5.30;;;;;;;;;;4963019;28;20053;-72
2022/05/18 03:51:12;;;;;;;8.02;5.00;;;;;;;;;;4962818;28;20066;-73
2022/05/18 03:53:38;;;;;;;8.60;5.10;;;;;;;;;;4963046;28;20044;-74
2022/05/18 03:56:03;;;;;;;8.32;4.93;;;;;;;;;;4963506;28;20030;-72
2022/05/18 03:58:29;;;;;;;10.23;5.15;;;;;;;;;;4961258;28;20026;-73
2022/05/18 04:00:56;;;;;;;11.15;6.45;;;;;;;;;;4960975;28;20141;-73
2022/05/18 04:03:25;;;;;;;11.05;5.68;;;;;;;;;;4962298;28;20085;-74
2022/05/18 04:05:52;;;;;;;10.18;6.28;;;;;;;;;;4960622;28;20042;-72
2022/05/18 04:08:18;;;;;;;9.00;5.85;;;;;;;;;;4962178;28;20033;-74
2022/05/18 04:10:43;;;;;;;9.30;5.45;;;;;;;;;;4962966;28;20045;-74
2022/05/18 04:13:15;;;;;;;8.90;5.65;;;;;;;;;;4963726;28;20046;-74
2022/05/18 04:15:41;;;;;;;12.57;5.90;;;;;;;;;;4961909;28;20034;-73
2022/05/18 04:18:07;;;;;;;10.80;6.20;;;;;;;;;;4962600;28;20840;-73
2022/05/18 04:20:33;;;;;;;9.38;5.60;;;;;;;;;;4963903;28;22786;-73
2022/05/18 04:22:58;;;;;;;8.15;5.90;;;;;;;;;;4964088;28;20058;-73
2022/05/18 04:25:26;;;;;;;10.45;5.85;;;;;;;;;;4963786;28;20046;-72
2022/05/18 04:27:53;;;;;;;9.82;6.20;;;;;;;;;;4979644;28;21894;-73
2022/05/18 04:30:21;;;;;;;9.50;6.13;;;;;;;;;;4964708;28;20052;-73
2022/05/18 04:32:46;;;;;;;9.65;5.97;;;;;;;;;;4963458;28;20046;-73
2022/05/18 04:35:15;;;;;;;11.40;6.43;;;;;;;;;;4964266;28;20034;-73
2022/05/18 04:37:40;;;;;;;11.07;6.47;;;;;;;;;;4968969;28;20117;-73
2022/05/18 04:40:07;;;;;;;11.82;6.75;;;;;;;;;;4966278;28;20394;-72
2022/05/18 04:42:33;;;;;;;12.57;7.35;;;;;;;;;;4964143;28;20475;-73
2022/05/18 04:44:58;;;;;;;11.13;6.70;;;;;;;;;;4964211;28;20140;-73
2022/05/18 04:47:25;;;;;;;9.50;6.50;;;;;;;;;;4963497;28;20050;-72
2022/05/18 04:49:51;;;;;;;8.07;6.13;;;;;;;;;;4963670;28;20022;-73
2022/05/18 04:52:18;;;;;;;8.02;6.00;;;;;;;;;;4963377;28;20525;-73
2022/05/18 04:54:43;;;;;;;8.88;5.45;;;;;;;;;;4963827;28;20042;-73
2022/05/18 04:57:09;;;;;;;11.20;5.22;;;;;;;;;;4961620;28;20053;-73
2022/05/18 04:59:34;;;;;;;7.80;5.38;;;;;;;;;;4961486;28;20038;-73
2022/05/18 05:02:00;;;;;;;9.25;4.63;;;;;;;;;;4962064;28;20088;-73
2022/05/18 05:04:26;;;;;;;5.07;4.38;;;;;;;;;;4967521;28;20042;-72
2022/05/18 05:06:51;;;;;;;8.65;4.55;;;;;;;;;;4962693;28;20038;-72
2022/05/18 05:09:17;;;;;;;9.68;5.07;;;;;;;;;;4961494;28;20042;-73
2022/05/18 05:11:42;;;;;;;10.68;5.47;;;;;;;;;;4962756;28;20084;-72
2022/05/18 05:14:08;;;;;;;7.15;5.25;;;;;;;;;;4962533;28;20030;-73
2022/05/18 05:16:34;;;;;;;9.27;5.53;;;;;;;;;;4960378;28;20039;-72
2022/05/18 05:18:59;;;;;;;8.27;4.88;;;;;;;;;;4959610;28;20095;-72
2022/05/18 05:21:25;;;;;;;10.75;5.15;;;;;;;;;;4961374;28;20100;-73
2022/05/18 05:23:50;;;;;;;10.40;5.07;;;;;;;;;;4961335;28;20648;-73
2022/05/18 05:26:16;;;;;;;6.82;4.60;;;;;;;;;;4961695;28;20034;-73
2022/05/18 05:28:41;;;;;;;7.88;4.88;;;;;;;;;;4961223;28;20034;-72
2022/05/18 05:31:09;;;;;;;7.43;4.68;;;;;;;;;;4961335;28;20074;-74
2022/05/18 05:33:36;;;;;;;6.50;4.88;;;;;;;;;;4962109;28;20741;-73
2022/05/18 05:36:02;;;;;;;7.28;4.60;;;;;;;;;;4961524;28;20070;-73
2022/05/18 05:38:28;;;;;;;9.65;4.50;;;;;;;;;;4959238;28;20777;-72
2022/05/18 05:40:55;;;;;;;8.32;4.28;;;;;;;;;;4961854;28;20786;-73
2022/05/18 05:43:20;;;;;;;6.88;4.50;;;;;;;;;;4962477;28;20043;-72
2022/05/18 05:46:04;;;;;;;7.97;3.97;;;;;;;;;;4964725;28;20051;-74
2022/05/18 05:48:31;;;;;;;5.50;3.60;;;;;;;;;;4960781;28;20049;-73
2022/05/18 05:51:01;;;;;;;4.85;3.63;;;;;;;;;;4960965;28;20039;-71
2022/05/18 05:53:27;;;;;;;8.70;3.70;;;;;;;;;;4975072;28;20578;-72
2022/05/18 05:55:56;;;;;;;8.00;3.53;;;;;;;;;;4960026;28;20561;-72
2022/05/18 05:58:23;;;;;;;5.25;3.10;;;;;;;;;;4964159;28;20101;-72
2022/05/18 06:00:48;;;;;;;8.60;3.22;;;;;;;;;;4960311;28;20594;-73
2022/05/18 06:03:15;;;;;;;5.80;2.88;;;;;;;;;;4965089;28;20042;-73
2022/05/18 06:05:42;;;;;;;6.40;3.25;;;;;;;;;;4961470;28;20074;-74
2022/05/18 06:08:08;;;;;;;3.65;2.88;;;;;;;;;;4965504;28;20034;-72
2022/05/18 06:10:34;;;;;;;6.72;3.13;;;;;;;;;;4958928;28;20034;-72
2022/05/18 06:13:05;;;;;;;4.32;2.92;;;;;;;;;;4957109;28;20035;-73
2022/05/18 06:15:31;;;;;;;7.38;3.22;;;;;;;;;;4957400;28;20400;-72
2022/05/18 06:17:56;;;;;;;7.45;3.40;;;;;;;;;;4960431;28;20053;-72
2022/05/18 06:20:21;;;;;;;11.25;3.40;;;;;;;;;;4959607;28;20108;-71
2022/05/18 06:22:47;;;;;;;7.25;3.72;;;;;;;;;;4959001;28;20033;-75
2022/05/18 06:25:15;;;;;;;8.32;3.63;;;;;;;;;;4958048;28;20290;-74
2022/05/18 06:27:41;;;;;;;11.10;4.25;;;;;;;;;;4958664;28;20042;-74
2022/05/18 06:30:09;;;;;;;16.95;4.30;;;;;;;;;;4960808;28;20100;-74
2022/05/18 06:32:35;;;;;;;17.52;4.47;;;;;;;;;;4960902;28;20061;-73
2022/05/18 06:35:00;;;;;;;15.43;4.10;;;;;;;;;;4959794;28;20030;-74
2022/05/18 06:37:26;;;;;;;16.45;4.15;;;;;;;;;;4960104;28;20122;-73
2022/05/18 06:39:52;;;;;;;14.45;4.15;;;;;;;;;;4961203;28;20039;-74
2022/05/18 06:42:17;;;;;;;22.83;3.97;;;;;;;;;;4960816;28;20038;-73
2022/05/18 06:44:45;;;;;;;10.18;3.60;;;;;;;;;;4960252;28;20727;-73
2022/05/18 06:47:12;;;;;;;11.85;3.83;;;;;;;;;;4959156;28;20019;-73
2022/05/18 06:49:39;;;;;;;16.33;3.95;;;;;;;;;;4958809;28;20073;-73
2022/05/18 06:52:04;;;;;;;14.63;3.35;;;;;;;;;;4959930;28;20041;-72
2022/05/18 06:54:30;;;;;;;15.57;4.28;;;;;;;;;;4958837;28;20486;-73
2022/05/18 06:56:55;;;;;;;12.60;4.05;;;;;;;;;;4962662;28;20541;-73
2022/05/18 06:59:20;;;;;;;14.73;4.10;;;;;;;;;;4959263;28;20688;-71
2022/05/18 07:01:46;;;;;;;7.53;3.60;;;;;;;;;;4960883;28;20374;-72
2022/05/18 07:04:12;;;;;;;12.93;3.67;;;;;;;;;;4959901;28;20458;-74
2022/05/18 07:06:41;;;;;;;15.80;4.00;;;;;;;;;;4958469;28;20073;-73
2022/05/18 07:09:10;;;;;;;11.20;3.83;;;;;;;;;;4957459;28;20550;-73
2022/05/18 07:11:36;;;;;;;9.00;3.42;;;;;;;;;;4958115;28;20034;-74
2022/05/18 07:14:02;;;;;;;8.15;3.30;;;;;;;;;;4956283;28;20526;-73
2022/05/18 07:16:32;;;;;;;7.57;4.40;;;;;;;;;;4959977;28;20089;-72
2022/05/18 07:18:58;;;;;;;8.43;3.25;;;;;;;;;;4960065;28;20069;-71
2022/05/18 07:21:25;;;;;;;8.75;3.50;;;;;;;;;;4960916;28;20117;-72
2022/05/18 07:23:52;;;;;;;8.23;3.10;;;;;;;;;;4961395;28;20130;-74
2022/05/18 07:26:18;;;;;;;9.40;3.20;;;;;;;;;;4958652;28;20125;-73
2022/05/18 07:28:45;;;;;;;5.43;2.85;;;;;;;;;;4965150;28;20031;-74
2022/05/18 07:31:11;;;;;;;8.77;2.95;;;;;;;;;;4960313;28;20453;-72
2022/05/18 07:33:36;;;;;;;5.32;2.97;;;;;;;;;;4959635;28;20051;-72
2022/05/18 07:36:04;;;;;;;11.32;2.92;;;;;;;;;;4960540;28;20043;-71
2022/05/18 07:38:31;;;;;;;9.88;3.03;;;;;;;;;;4960708;28;20046;-72
2022/05/18 07:40:57;;;;;;;7.05;2.80;;;;;;;;;;4961836;28;20041;-70
2022/05/18 07:43:22;;;;;;;7.55;2.80;;;;;;;;;;4958326;28;20035;-74
2022/05/18 07:45:50;;;;;;;8.80;2.70;;;;;;;;;;4959088;28;20588;-74
2022/05/18 07:48:16;;;;;;;9.55;3.08;;;;;;;;;;4958027;28;20577;-71
2022/05/18 07:50:42;;;;;;;6.88;2.95;;;;;;;;;;4962117;28;20052;-73
2022/05/18 07:53:07;;;;;;;9.52;2.63;;;;;;;;;;4959130;28;20921;-73
2022/05/18 07:55:33;;;;;;;5.63;2.60;;;;;;;;;;4961083;28;20038;-73
2022/05/18 07:58:02;;;;;;;5.88;2.80;;;;;;;;;;4956386;28;20106;-73
2022/05/18 08:00:27;;;;;;;5.80;2.85;;;;;;;;;;4960631;28;20050;-73
2022/05/18 08:02:53;;;;;;;9.07;3.22;;;;;;;;;;4957026;28;20042;-73
2022/05/18 08:05:18;;;;;;;7.32;3.15;;;;;;;;;;4960039;28;20026;-73
2022/05/18 08:07:47;;;;;;;7.53;3.72;;;;;;;;;;4973117;28;21718;-73
2022/05/18 08:15:45;;;;;;;12.27;4.57;;;;;;;;;;4961316;28;20388;-72
2022/05/18 08:18:11;;;;;;;11.25;4.68;;;;;;;;;;4960194;28;20039;-73
2022/05/18 08:20:41;;;;;;;6.47;3.63;;;;;;;;;;4957206;28;20097;-73
2022/05/18 08:23:07;;;;;;;8.50;3.40;;;;;;;;;;4959585;28;20034;-73
2022/05/18 08:25:33;;;;;;;8.35;3.45;;;;;;;;;;4962345;28;20045;-73
2022/05/18 08:27:59;;;;;;;8.93;2.97;;;;;;;;;;4960746;28;20034;-73
2022/05/18 08:30:24;;;;;;;5.85;3.20;;;;;;;;;;4961846;28;20095;-73
2022/05/18 08:32:50;;;;;;;6.30;3.30;;;;;;;;;;4962252;28;20399;-72
2022/05/18 08:35:17;;;;;;;7.30;3.08;;;;;;;;;;4958630;28;21681;-72
2022/05/18 08:37:47;;;;;;;8.13;3.33;;;;;;;;;;4960146;28;20034;-71
2022/05/18 08:40:38;;;;;;;8.18;4.07;;;;;;;;;;4961024;28;20046;-72
2022/05/18 08:43:09;;;;;;;6.88;3.30;;;;;;;;;;4959874;28;20042;-72
2022/05/18 08:45:38;;;;;;;7.03;2.67;;;;;;;;;;4960871;28;20907;-71
2022/05/18 08:48:15;;;;;;;8.68;2.88;;;;;;;;;;4961273;28;20043;-72
2022/05/18 08:50:40;;;;;;;4.95;2.53;;;;;;;;;;4960600;28;20112;-73
2022/05/18 08:53:24;;;;;;;5.28;3.20;;;;;;;;;;4959669;28;20623;-72
2022/05/18 08:55:58;;;;;;;5.22;2.90;;;;;;;;;;4963161;28;20064;-70
2022/05/18 08:58:33;;;;;;;5.25;2.55;;;;;;;;;;4962426;28;20045;-73
2022/05/18 09:01:06;;;;;;;7.78;2.95;;;;;;;;;;4963086;28;20629;-72
2022/05/18 09:03:37;;;;;;;;;;;;;;;;;;4962750;28;20503;-71
2022/05/18 09:06:30;;;;;;;7.53;2.58;;;;;;;;;;4963013;28;21626;-73
2022/05/18 09:11:48;;;;;;;12.02;3.22;;;;;;;;;;4960502;28;20622;-71
2022/05/18 09:14:17;;;;;;;12.82;3.00;;;;;;;;;;4960530;28;20030;-71
2022/05/18 09:16:52;;;;;;;9.30;2.67;;;;;;;;;;4965004;28;20164;-72
2022/05/18 09:19:31;;;;;;;5.60;2.53;;;;;;;;;;4960826;28;20565;-75
2022/05/18 09:22:21;;;;;;;4.32;2.30;;;;;;;;;;4962401;28;20618;-71
2022/05/18 09:25:24;;;;;;;5.35;2.80;;;;;;;;;;4962539;28;20050;-71
2022/05/18 09:28:08;;;;;;;4.90;2.35;;;;;;;;;;4964105;28;20574;-72
2022/05/18 09:30:56;;;;;;;6.65;2.38;;;;;;;;;;4962812;28;20043;-72
2022/05/18 09:33:34;;;;;;;3.42;2.40;;;;;;;;;;4960725;28;20046;-73
2022/05/18 09:36:11;;;;;;;3.83;2.47;;;;;;;;;;4960047;28;20046;-72
2022/05/18 09:38:52;;;;;;;5.57;2.08;;;;;;;;;;4960634;28;20042;-73
2022/05/18 09:41:19;;;;;;;5.20;2.03;;;;;;;;;;4960106;28;20037;-72
2022/05/18 09:44:00;;;;;;;6.35;2.35;;;;;;;;;;4961125;28;20045;-72
2022/05/18 09:46:29;;;;;;;5.25;2.40;;;;;;;;;;4960227;28;20049;-74
2022/05/18 09:48:57;;;;;;;4.20;2.35;;;;;;;;;;4961119;28;20073;-72
2022/05/18 09:51:24;;;;;;;6.68;2.40;;;;;;;;;;4960129;28;20038;-72
2022/05/18 09:53:50;;;;;;;7.32;2.50;;;;;;;;;;4962626;28;20768;-71
2022/05/18 09:56:24;;;;;;;6.03;2.03;;;;;;;;;;4964722;28;20060;-72
2022/05/18 09:58:52;;;;;;;4.18;2.03;;;;;;;;;;4964075;28;20486;-73
2022/05/18 10:09:50;;;;;;;7.22;2.50;;;;;;;;;;4961595;28;20101;-72
2022/05/18 10:12:21;;;;;;;2.70;1.98;;;;;;;;;;4960917;28;20054;-71
2022/05/18 10:14:58;;;;;;;5.50;2.25;;;;;;;;;;4960300;28;20526;-71
2022/05/18 10:17:32;;;;;;;5.78;2.40;;;;;;;;;;4964432;28;20499;-71
2022/05/18 10:20:09;;;;;;;4.18;2.10;;;;;;;;;;4960460;28;20581;-71
2022/05/18 10:22:44;;;;;;;7.93;2.72;;;;;;;;;;4961823;28;20043;-73
2022/05/18 10:25:14;;;;;;;3.85;1.98;;;;;;;;;;4945104;28;20046;-71
2022/05/18 10:27:44;;;;;;;3.58;1.65;;;;;;;;;;4961191;28;20471;-74
2022/05/18 10:30:34;;;;;;;4.90;2.15;;;;;;;;;;4963124;28;20731;-73
2022/05/18 10:33:00;;;;;;;4.88;2.05;;;;;;;;;;4962766;28;20042;-71
2022/05/18 10:35:33;;;;;;;3.65;1.88;;;;;;;;;;4964455;28;20053;-70
2022/05/18 10:38:02;;;;;;;2.92;1.60;;;;;;;;;;4967159;28;20038;-72
2022/05/18 10:40:29;;;;;;;3.75;1.92;;;;;;;;;;4962102;28;20145;-71
2022/05/18 10:43:18;;;;;;;4.88;1.88;;;;;;;;;;4961830;28;20050;-72
2022/05/18 10:45:53;;;;;;;3.85;1.83;;;;;;;;;;4961995;28;20534;-71
2022/05/18 10:48:22;;;;;;;4.63;1.75;;;;;;;;;;4962862;28;20618;-70
2022/05/18 10:50:49;;;;;;;4.47;2.00;;;;;;;;;;4963252;28;20034;-73
2022/05/18 10:53:32;;;;;;;5.78;2.03;;;;;;;;;;4966089;28;20031;-72
2022/05/18 10:55:57;;;;;;;3.42;1.70;;;;;;;;;;4959366;28;20402;-72
2022/05/18 10:58:30;;;;;;;3.70;1.90;;;;;;;;;;4960779;28;20035;-73
2022/05/18 11:01:01;;;;;;;7.15;2.10;;;;;;;;;;4961028;28;20051;-73
2022/05/18 11:03:39;;;;;;;2.50;1.67;;;;;;;;;;4960205;28;20513;-71
2022/05/18 11:06:10;;;;;;;2.45;1.55;;;;;;;;;;4961062;28;20372;-71
2022/05/18 11:08:35;;;;;;;4.88;1.85;;;;;;;;;;4957673;28;20516;-72
2022/05/18 11:11:28;;;;;;;4.03;1.77;;;;;;;;;;4961504;28;20030;-71
2022/05/18 11:14:23;;;;;;;3.95;1.60;;;;;;;;;;4958925;28;20093;-71
2022/05/18 11:17:04;;;;;;;5.35;1.67;;;;;;;;;;4961737;28;20569;-73
2022/05/18 11:20:01;;;;;;;3.63;1.85;;;;;;;;;;4959546;28;20042;-72
2022/05/18 11:22:52;;;;;;;4.03;1.92;;;;;;;;;;4959088;28;20049;-74
2022/05/18 11:25:32;;;;;;;5.05;1.95;;;;;;;;;;4961625;28;20052;-71
2022/05/18 11:28:06;;;;;;;3.85;1.55;;;;;;;;;;4961554;28;20042;-71
2022/05/18 11:30:41;;;;;;;2.78;1.60;;;;;;;;;;4959782;28;20510;-72
2022/05/18 11:33:32;;;;;;;2.70;1.35;;;;;;;;;;4962147;28;20133;-73
2022/05/18 11:36:12;;;;;;;4.63;1.90;;;;;;;;;;4959875;28;20576;-74
2022/05/18 11:39:03;;;;;;;2.13;1.77;;;;;;;;;;4959956;28;20109;-72
2022/05/18 11:41:31;;;;;;;3.28;1.50;;;;;;;;;;4958734;28;20391;-73
2022/05/18 11:44:03;;;;;;;4.47;1.40;;;;;;;;;;4959824;28;20450;-72
2022/05/18 11:47:08;;;;;;;2.28;1.58;;;;;;;;;;4959786;28;20138;-73
2022/05/18 11:49:48;;;;;;;3.10;1.70;;;;;;;;;;4959800;28;20042;-71
2022/05/18 11:52:33;;;;;;;3.03;1.33;;;;;;;;;;4961845;28;20093;-74
2022/05/18 11:55:17;;;;;;;4.15;1.80;;;;;;;;;;4960890;28;20065;-71
2022/05/18 11:57:58;;;;;;;5.47;1.77;;;;;;;;;;4961492;28;20046;-72
2022/05/18 12:00:58;;;;;;;2.22;1.50;;;;;;;;;;4961350;28;20043;-72
2022/05/18 12:03:44;;;;;;;3.28;1.70;;;;;;;;;;4962531;28;20165;-71
2022/05/18 12:06:29;;;;;;;3.47;1.40;;;;;;;;;;4963312;28;20042;-72
2022/05/18 12:09:06;;;;;;;2.35;1.30;;;;;;;;;;4962934;28;20045;-71
2022/05/18 12:11:48;;;;;;;2.47;1.20;;;;;;;;;;4961894;28;20100;-73
2022/05/18 12:14:28;;;;;;;3.95;1.33;;;;;;;;;;4961111;28;20363;-71
2022/05/18 12:17:07;;;;;;;4.72;1.20;;;;;;;;;;4962077;28;20077;-71
2022/05/18 12:19:44;;;;;;;3.10;1.50;;;;;;;;;;4960038;28;20050;-71
2022/05/18 12:22:16;;;;;;;3.80;1.35;;;;;;;;;;4959549;28;20044;-72
2022/05/18 12:24:45;;;;;;;2.78;1.77;;;;;;;;;;4960394;28;20054;-72
2022/05/18 12:27:13;;;;;;;5.95;1.55;;;;;;;;;;4962274;28;20767;-73
2022/05/18 12:29:40;;;;;;;2.13;1.30;;;;;;;;;;4962108;28;21064;-71
2022/05/18 12:32:06;;;;;;;2.20;1.23;;;;;;;;;;4962042;28;20033;-71
2022/05/18 12:34:35;;;;;;;2.40;1.23;;;;;;;;;;4961289;28;20058;-72
2022/05/18 12:37:12;;;;;;;2.85;1.40;;;;;;;;;;4960390;28;20043;-71
2022/05/18 12:39:45;;;;;;;4.07;1.40;;;;;;;;;;4955743;28;20050;-71
2022/05/18 12:42:16;;;;;;;1.58;1.40;;;;;;;;;;4959953;28;20775;-71
2022/05/18 12:45:21;;;;;;;4.63;1.25;;;;;;;;;;4964107;28;20513;-73
2022/05/18 12:47:52;;;;;;;1.70;1.15;;;;;;;;;;4945939;28;20034;-72
2022/05/18 12:50:19;;;;;;;2.35;1.27;;;;;;;;;;4963186;28;20195;-72
2022/05/18 12:52:51;;;;;;;4.32;1.42;;;;;;;;;;4964369;28;20561;-71
2022/05/18 12:55:32;;;;;;;1.52;1.10;;;;;;;;;;4962637;28;20988;-72
2022/05/18 12:58:10;;;;;;;4.13;1.20;;;;;;;;;;4961015;28;20145;-71
2022/05/18 13:00:57;;;;;;;4.63;1.30;;;;;;;;;;4964478;28;20672;-72
2022/05/18 13:03:43;;;;;;;1.85;1.15;;;;;;;;;;4960531;28;20030;-71
2022/05/18 13:06:29;;;;;;;1.35;1.08;;;;;;;;;;4960821;28;20046;-72
2022/05/18 13:09:21;;;;;;;1.67;1.00;;;;;;;;;;4959333;28;20463;-68
2022/05/18 13:11:57;;;;;;;2.00;1.23;;;;;;;;;;4962058;28;20678;-73
2022/05/18 13:14:35;;;;;;;3.75;2.92;;;;;;;;;;4963318;28;20640;-73
2022/05/18 13:17:12;;;;;;;2.20;1.40;;;;;;;;;;4962719;28;20027;-70
2022/05/18 13:19:45;;;;;;;2.88;1.33;;;;;;;;;;4963431;28;20678;-72
2022/05/18 13:22:16;;;;;;;1.38;1.20;;;;;;;;;;4965748;28;20423;-72
2022/05/18 13:24:48;;;;;;;2.17;1.40;;;;;;;;;;4962161;28;20042;-71
2022/05/18 13:27:16;;;;;;;2.30;1.07;;;;;;;;;;4961090;28;20030;-73
2022/05/18 13:29:43;;;;;;;1.45;1.20;;;;;;;;;;4966510;28;20077;-72
2022/05/18 13:32:13;;;;;;;2.50;1.40;;;;;;;;;;4965556;28;20403;-72
2022/05/18 13:34:49;;;;;;;3.30;1.55;;;;;;;;;;4962379;28;20427;-71
2022/05/18 13:37:16;;;;;;;3.50;1.33;;;;;;;;;;4961045;28;20141;-73
2022/05/18 13:39:45;;;;;;;1.30;1.20;;;;;;;;;;4966623;28;21213;-72
2022/05/18 13:42:15;;;;;;;1.92;1.48;;;;;;;;;;4975734;28;20267;-73
2022/05/18 13:44:42;;;;;;;2.83;1.40;;;;;;;;;;4961583;28;20324;-72
2022/05/18 13:47:17;;;;;;;2.35;1.40;;;;;;;;;;4965081;28;20023;-73
2022/05/18 13:49:43;;;;;;;2.25;1.27;;;;;;;;;;4961347;28;20049;-72
2022/05/18 13:52:21;;;;;;;2.08;1.30;;;;;;;;;;4964931;28;20038;-72
2022/05/18 13:54:50;;;;;;;2.47;1.20;;;;;;;;;;4960769;28;20046;-71
2022/05/18 13:57:19;;;;;;;2.67;1.10;;;;;;;;;;4959830;28;20047;-72
2022/05/18 13:59:55;;;;;;;2.03;1.30;;;;;;;;;;4972880;28;20089;-74
2022/05/18 14:02:24;;;;;;;1.55;1.10;;;;;;;;;;4957626;28;20129;-74
2022/05/18 14:04:56;;;;;;;5.05;1.30;;;;;;;;;;4957583;28;20526;-72
2022/05/18 14:07:23;;;;;;;2.30;1.55;;;;;;;;;;4959047;28;20035;-72
2022/05/18 14:09:50;;;;;;;2.92;1.25;;;;;;;;;;4958414;28;20156;-73
2022/05/18 14:12:22;;;;;;;2.42;1.33;;;;;;;;;;4960756;28;20491;-73
2022/05/18 14:14:52;;;;;;;2.90;1.23;;;;;;;;;;4960460;28;20038;-73
2022/05/18 14:17:20;;;;;;;3.22;1.40;;;;;;;;;;4961278;28;20154;-73
2022/05/18 14:20:18;;;;;;;2.47;1.60;;;;;;;;;;4963256;28;20523;-71
2022/05/18 14:22:50;;;;;;;2.25;1.50;;;;;;;;;;4960071;28;20050;-72
2022/05/18 14:25:16;;;;;;;2.40;1.50;;;;;;;;;;4959006;28;20073;-71
2022/05/18 14:27:50;;;;;;;3.05;1.60;;;;;;;;;;4957255;28;20047;-72
2022/05/18 14:30:21;;;;;;;3.85;1.63;;;;;;;;;;4957732;28;20042;-72
2022/05/18 14:32:55;;;;;;;1.85;1.40;;;;;;;;;;4960050;28;20043;-72
2022/05/18 14:35:24;;;;;;;1.67;1.20;;;;;;;;;;4958382;28;20510;-73
2022/05/18 14:37:55;;;;;;;1.55;1.15;;;;;;;;;;4961242;28;20035;-71
2022/05/18 14:40:23;;;;;;;3.13;1.35;;;;;;;;;;4962104;28;20466;-73
2022/05/18 14:42:52;;;;;;;2.05;1.10;;;;;;;;;;4959006;28;20129;-71
2022/05/18 14:45:51;;;;;;;1.13;1.00;;;;;;;;;;4962394;28;20058;-71
2022/05/18 14:48:25;;;;;;;2.65;1.23;;;;;;;;;;4957263;28;20069;-72
2022/05/18 14:50:51;;;;;;;1.90;1.30;;;;;;;;;;4958058;28;20035;-71
2022/05/18 14:53:22;;;;;;;2.97;1.40;;;;;;;;;;4959507;28;20173;-71
2022/05/18 14:56:08;;;;;;;2.20;1.55;;;;;;;;;;4976206;28;20154;-73
2022/05/18 14:58:46;;;;;;;3.55;1.40;;;;;;;;;;4947706;28;20046;-72
2022/05/18 15:01:52;;;;;;;2.20;1.38;;;;;;;;;;4960659;28;20629;-72
2022/05/18 15:04:36;;;;;;;1.42;1.33;;;;;;;;;;4961082;28;21829;-71
2022/05/18 15:07:07;;;;;;;2.55;1.20;;;;;;;;;;4959612;28;20125;-71
2022/05/18 15:09:40;;;;;;;1.70;1.30;;;;;;;;;;4954399;28;20506;-73
2022/05/18 15:12:14;;;;;;;2.97;1.25;;;;;;;;;;4964922;28;20061;-73
2022/05/18 15:14:52;;;;;;;6.88;1.80;;;;;;;;;;4960055;28;20047;-72
2022/05/18 15:17:21;;;;;;;1.63;1.30;;;;;;;;;;4957554;28;20042;-73
2022/05/18 15:20:18;;;;;;;1.55;1.17;;;;;;;;;;4968867;28;20037;-72
2022/05/18 15:22:50;;;;;;;4.55;1.70;;;;;;;;;;4958351;28;20814;-74
2022/05/18 15:25:37;;;;;;;3.00;1.50;;;;;;;;;;4961396;28;20033;-72